createdAt,value
2022-09-09T00:01:28.409Z,0.40
2022-09-09T00:04:00.867Z,2.17
2022-09-09T00:06:43.963Z,1.75
2022-09-09T00:09:19.223Z,1.20
2022-09-09T00:11:51.893Z,0.40
2022-09-09T00:14:34.979Z,1.02
2022-09-09T00:17:13.207Z,0.60
2022-09-09T00:19:51.372Z,0.82
2022-09-09T00:22:20.934Z,0.93
2022-09-09T00:25:04.139Z,1.77
2022-09-09T00:27:42.667Z,0.93
2022-09-09T00:30:15.315Z,0.70
2022-09-09T00:32:44.437Z,1.40
2022-09-09T00:35:10.808Z,1.10
2022-09-09T00:37:39.571Z,1.10
2022-09-09T00:40:23.279Z,0.30
2022-09-09T00:42:55.596Z,1.10
2022-09-09T00:46:13.214Z,0.40
2022-09-09T00:48:53.483Z,0.93
2022-09-09T00:51:35.350Z,1.13
2022-09-09T00:54:20.590Z,1.10
2022-09-09T00:57:07.382Z,0.70
2022-09-09T00:59:51.332Z,0.55
2022-09-09T01:02:40.069Z,0.73
2022-09-09T01:05:14.673Z,1.17
2022-09-09T01:07:47.935Z,2.13
2022-09-09T01:10:35.638Z,1.47
2022-09-09T01:13:06.556Z,0.85
2022-09-09T01:15:35.235Z,1.20
2022-09-09T01:18:06.878Z,1.02
2022-09-09T01:20:48.636Z,2.03
2022-09-09T01:23:39.497Z,1.85
2022-09-09T01:26:16.301Z,0.85
2022-09-09T01:28:49.573Z,0.95
2022-09-09T01:31:23.576Z,3.73
2022-09-09T01:36:34.692Z,0.93
2022-09-09T01:41:28.123Z,1.50
2022-09-09T01:43:56.383Z,3.53
2022-09-09T01:46:24.162Z,1.95
2022-09-09T01:48:55.711Z,0.45
2022-09-09T01:51:22.760Z,1.38
2022-09-09T01:53:49.275Z,0.73
2022-09-09T01:56:36.750Z,0.80
2022-09-09T01:59:12.239Z,0.80
2022-09-09T02:02:12.464Z,2.42
2022-09-09T02:05:17.792Z,0.93
2022-09-09T02:07:49.530Z,0.70
2022-09-09T02:10:22.522Z,1.23
2022-09-09T02:12:56.902Z,0.93
2022-09-09T02:15:49.295Z,1.00
2022-09-09T02:18:25.390Z,0.98
2022-09-09T02:20:54.240Z,1.10
2022-09-09T02:23:21.853Z,0.85
2022-09-09T02:25:50.039Z,6.53
2022-09-09T02:28:18.467Z,1.38
2022-09-09T02:30:48.145Z,0.70
2022-09-09T02:33:15.359Z,2.97
2022-09-09T02:35:44.960Z,6.57
2022-09-09T02:38:14.759Z,0.75
2022-09-09T02:40:41.200Z,1.52
2022-09-09T02:43:07.651Z,0.70
2022-09-09T02:45:50.102Z,0.90
2022-09-09T02:48:31.106Z,0.55
2022-09-09T02:51:11.445Z,0.80
2022-09-09T02:53:51.975Z,1.88
2022-09-09T02:56:22.747Z,0.63
2022-09-09T02:58:52.161Z,1.02
2022-09-09T03:01:18.888Z,1.15
2022-09-09T03:03:47.411Z,1.10
2022-09-09T03:06:13.852Z,1.38
2022-09-09T03:08:40.269Z,1.90
2022-09-09T03:11:08.186Z,0.90
2022-09-09T03:13:34.886Z,0.82
2022-09-09T03:16:01.479Z,1.38
2022-09-09T03:18:29.124Z,1.35
2022-09-09T03:20:55.514Z,2.80
2022-09-09T03:23:22.661Z,1.70
2022-09-09T03:25:50.793Z,3.67
2022-09-09T03:28:17.278Z,1.67
2022-09-09T03:30:43.787Z,1.02
2022-09-09T03:33:10.231Z,1.13
2022-09-09T03:35:37.096Z,3.28
2022-09-09T03:38:03.727Z,0.85
2022-09-09T03:40:30.106Z,1.45
2022-09-09T03:42:56.463Z,2.00
2022-09-09T03:45:22.824Z,0.93
2022-09-09T03:47:50.016Z,1.05
2022-09-09T03:50:16.450Z,0.88
2022-09-09T03:52:43.799Z,0.80
2022-09-09T03:55:10.316Z,0.98
2022-09-09T03:57:37.114Z,1.48
2022-09-09T04:00:08.884Z,0.90
2022-09-09T04:02:35.441Z,1.65
2022-09-09T04:05:02.072Z,3.15
2022-09-09T04:07:29.123Z,0.77
2022-09-09T04:09:55.635Z,2.03
2022-09-09T04:12:23.360Z,1.90
2022-09-09T04:14:49.982Z,1.20
2022-09-09T04:17:16.550Z,1.40
2022-09-09T04:19:43.312Z,1.35
2022-09-09T04:22:10.345Z,1.55
2022-09-09T04:24:36.808Z,2.53
2022-09-09T04:27:03.484Z,4.88
2022-09-09T04:29:29.851Z,1.80
2022-09-09T04:31:56.267Z,4.90
2022-09-09T04:34:22.703Z,3.33
2022-09-09T04:36:49.100Z,0.95
2022-09-09T04:39:15.578Z,1.02
2022-09-09T04:41:41.969Z,2.38
2022-09-09T04:44:08.401Z,1.85
2022-09-09T04:46:37.612Z,1.38
2022-09-09T04:49:04.013Z,3.60
2022-09-09T04:51:32.080Z,1.42
2022-09-09T04:53:58.561Z,3.17
2022-09-09T04:56:27.795Z,2.25
2022-09-09T04:58:54.610Z,1.30
2022-09-09T05:01:23.027Z,3.22
2022-09-09T05:03:49.733Z,2.28
2022-09-09T05:06:18.844Z,4.18
2022-09-09T05:08:45.744Z,2.25
2022-09-09T05:11:20.739Z,3.45
2022-09-09T05:13:47.888Z,3.55
2022-09-09T05:16:15.119Z,1.45
2022-09-09T05:18:43.674Z,4.82
2022-09-09T05:21:11.081Z,3.30
2022-09-09T05:23:38.495Z,8.50
2022-09-09T05:26:06.200Z,5.55
2022-09-09T05:28:35.691Z,7.70
2022-09-09T05:31:09.065Z,4.47
2022-09-09T05:33:36.935Z,5.22
2022-09-09T05:36:08.973Z,5.05
2022-09-09T05:38:37.006Z,3.72
2022-09-09T05:41:04.692Z,6.35
2022-09-09T05:43:33.392Z,6.10
2022-09-09T05:46:05.569Z,7.47
2022-09-09T05:48:34.058Z,6.50
2022-09-09T05:51:01.797Z,10.48
2022-09-09T05:53:28.446Z,5.63
2022-09-09T05:56:06.036Z,9.85
2022-09-09T05:58:33.340Z,5.70
2022-09-09T06:01:14.592Z,9.68
2022-09-09T06:03:42.523Z,6.32
2022-09-09T06:06:11.446Z,6.35
2022-09-09T06:08:40.523Z,4.22
2022-09-09T06:11:09.894Z,9.98
2022-09-09T06:13:38.427Z,5.85
2022-09-09T06:16:05.588Z,3.33
2022-09-09T06:18:32.034Z,4.55
2022-09-09T06:21:01.483Z,5.28
2022-09-09T06:23:29.429Z,4.38
2022-09-09T06:26:14.805Z,7.13
2022-09-09T06:28:43.065Z,8.52
2022-09-09T06:31:11.816Z,6.60
2022-09-09T06:33:42.893Z,3.90
2022-09-09T06:36:15.818Z,3.80
2022-09-09T06:38:43.377Z,3.97
2022-09-09T06:41:11.168Z,8.73
2022-09-09T06:43:37.645Z,6.43
2022-09-09T06:46:07.207Z,4.00
2022-09-09T06:48:33.746Z,3.47
2022-09-09T06:51:09.245Z,8.60
2022-09-09T06:53:37.004Z,5.85
2022-09-09T06:56:19.515Z,4.82
2022-09-09T06:58:46.547Z,3.95
2022-09-09T07:01:17.073Z,2.92
2022-09-09T07:03:46.206Z,4.18
2022-09-09T07:06:21.051Z,6.40
2022-09-09T07:08:56.653Z,3.70
2022-09-09T07:11:26.699Z,5.50
2022-09-09T07:13:53.774Z,4.07
2022-09-09T07:16:24.574Z,3.00
2022-09-09T07:18:51.991Z,3.38
2022-09-09T07:21:20.099Z,3.83
2022-09-09T07:23:46.475Z,3.20
2022-09-09T07:26:20.140Z,4.60
2022-09-09T07:28:47.575Z,3.90
2022-09-09T07:31:21.441Z,4.35
2022-09-09T07:33:49.283Z,2.97
2022-09-09T07:36:22.751Z,3.22
2022-09-09T07:38:55.143Z,3.80
2022-09-09T07:41:25.618Z,3.03
2022-09-09T07:43:54.837Z,2.83
2022-09-09T07:46:23.456Z,2.50
2022-09-09T07:48:53.609Z,4.85
2022-09-09T07:51:23.421Z,4.25
2022-09-09T07:53:53.807Z,3.60
2022-09-09T07:56:22.754Z,3.95
2022-09-09T07:58:50.016Z,5.10
2022-09-09T08:01:20.952Z,2.67
2022-09-09T08:03:56.572Z,2.97
2022-09-09T08:06:23.213Z,5.28
2022-09-09T08:08:52.304Z,2.42
2022-09-09T08:11:18.862Z,2.55
2022-09-09T08:13:45.875Z,2.65
2022-09-09T08:16:18.516Z,3.45
2022-09-09T08:18:45.703Z,2.00
2022-09-09T08:21:15.123Z,1.60
2022-09-09T08:23:42.486Z,2.30
2022-09-09T08:26:17.274Z,2.13
2022-09-09T08:28:44.538Z,1.80
2022-09-09T08:31:17.342Z,1.83
2022-09-09T08:33:46.905Z,3.05
2022-09-09T08:36:17.190Z,2.10
2022-09-09T08:38:44.466Z,3.80
2022-09-09T08:41:37.952Z,1.70
2022-09-09T08:44:10.691Z,2.85
2022-09-09T08:46:57.714Z,1.85
2022-09-09T08:49:50.844Z,1.73
2022-09-09T08:52:22.801Z,1.25
2022-09-09T08:54:52.579Z,2.03
2022-09-09T08:57:28.914Z,2.42
2022-09-09T08:59:57.576Z,2.30
2022-09-09T09:02:38.895Z,1.63
2022-09-09T09:05:33.630Z,1.70
2022-09-09T09:10:44.104Z,1.15
2022-09-09T09:13:31.983Z,1.30
2022-09-09T09:16:28.262Z,2.65
2022-09-09T09:18:56.046Z,1.33
2022-09-09T09:21:31.214Z,1.67
2022-09-09T09:24:00.717Z,1.10
2022-09-09T09:26:34.106Z,1.35
2022-09-09T09:29:10.212Z,1.25
2022-09-09T09:31:36.583Z,1.15
2022-09-09T09:34:03.459Z,1.05
2022-09-09T09:36:42.431Z,0.60
2022-09-09T09:41:58.650Z,1.38
2022-09-09T09:44:29.099Z,1.65
2022-09-09T09:47:07.864Z,2.78
2022-09-09T09:49:34.427Z,1.38
2022-09-09T09:52:05.295Z,0.80
2022-09-09T09:54:36.965Z,0.88
2022-09-09T09:57:11.899Z,0.68
2022-09-09T09:59:41.672Z,0.77
2022-09-09T10:02:13.896Z,0.85
2022-09-09T10:04:40.449Z,1.48
2022-09-09T10:07:20.991Z,1.00
2022-09-09T10:09:54.773Z,0.75
2022-09-09T10:12:49.760Z,1.48
2022-09-09T10:15:34.458Z,1.02
2022-09-09T10:18:35.275Z,0.77
2022-09-09T10:21:33.468Z,0.75
2022-09-09T10:24:28.030Z,0.80
2022-09-09T10:27:06.371Z,1.23
2022-09-09T10:29:54.749Z,0.98
2022-09-09T10:32:27.364Z,0.50
2022-09-09T10:34:57.163Z,0.68
2022-09-09T10:37:49.267Z,0.63
2022-09-09T10:40:21.866Z,0.77
2022-09-09T10:42:48.371Z,0.75
2022-09-09T10:45:56.038Z,0.85
2022-09-09T10:48:35.444Z,0.65
2022-09-09T10:51:29.773Z,0.70
2022-09-09T10:54:38.926Z,0.90
2022-09-09T10:57:21.706Z,0.70
2022-09-09T10:59:53.946Z,0.50
2022-09-09T11:02:30.919Z,0.75
2022-09-09T11:05:07.638Z,0.65
2022-09-09T11:07:40.483Z,0.60
2022-09-09T11:10:19.261Z,0.60
2022-09-09T11:12:50.012Z,0.77
2022-09-09T11:15:30.351Z,0.70
2022-09-09T11:18:02.750Z,0.70
2022-09-09T11:20:29.342Z,1.42
2022-09-09T11:23:03.535Z,0.65
2022-09-09T11:25:38.646Z,0.77
2022-09-09T11:28:42.179Z,0.40
2022-09-09T11:31:40.629Z,0.40
2022-09-09T11:34:26.805Z,0.57
2022-09-09T11:37:09.157Z,1.30
2022-09-09T11:40:20.558Z,0.40
2022-09-09T11:42:50.854Z,0.20
2022-09-09T11:45:29.562Z,0.80
2022-09-09T11:47:58.415Z,0.32
2022-09-09T11:50:24.718Z,0.32
2022-09-09T11:52:52.699Z,0.75
2022-09-09T11:55:30.590Z,0.93
2022-09-09T11:58:01.835Z,1.35
2022-09-09T12:00:34.884Z,1.40
2022-09-09T12:03:01.355Z,0.90
2022-09-09T12:05:58.158Z,0.60
2022-09-09T12:08:29.431Z,0.43
2022-09-09T12:11:00.183Z,0.50
2022-09-09T12:13:28.039Z,1.27
2022-09-09T12:15:57.162Z,0.80
2022-09-09T12:18:26.413Z,0.90
2022-09-09T12:21:04.897Z,0.90
2022-09-09T12:23:39.915Z,1.58
2022-09-09T12:26:16.679Z,1.73
2022-09-09T12:29:00.675Z,0.77
2022-09-09T12:31:45.615Z,1.10
2022-09-09T12:34:12.890Z,0.50
2022-09-09T12:36:42.220Z,0.55
2022-09-09T12:39:20.674Z,1.30
2022-09-09T12:41:57.633Z,0.50
2022-09-09T12:44:25.883Z,1.63
2022-09-09T12:46:54.081Z,4.85
2022-09-09T12:49:29.474Z,0.77
2022-09-09T12:51:58.289Z,0.45
2022-09-09T12:54:24.767Z,0.65
2022-09-09T12:56:51.258Z,0.80
2022-09-09T12:59:26.588Z,0.50
2022-09-09T13:01:59.971Z,0.55
2022-09-09T13:04:27.149Z,1.20
2022-09-09T13:06:53.928Z,2.78
2022-09-09T13:09:20.755Z,3.08
2022-09-09T13:11:54.441Z,7.97
2022-09-09T13:14:33.429Z,4.35
2022-09-09T13:17:02.557Z,1.10
2022-09-09T13:19:33.638Z,0.50
2022-09-09T13:22:01.742Z,0.65
2022-09-09T13:24:34.777Z,2.97
2022-09-09T13:27:04.007Z,1.10
2022-09-09T13:29:32.226Z,1.90
2022-09-09T13:32:17.319Z,2.33
2022-09-09T13:34:53.143Z,1.17
2022-09-09T13:37:42.126Z,1.00
2022-09-09T13:40:18.903Z,0.98
2022-09-09T13:42:45.889Z,0.70
2022-09-09T13:45:21.590Z,1.23
2022-09-09T13:47:53.046Z,1.75
2022-09-09T13:50:24.337Z,1.05
2022-09-09T13:52:54.283Z,1.13
2022-09-09T13:55:23.835Z,1.10
2022-09-09T13:58:01.800Z,1.52
2022-09-09T14:00:31.346Z,1.25
2022-09-09T14:02:57.848Z,3.13
2022-09-09T14:05:24.718Z,1.15
2022-09-09T14:07:53.322Z,13.65
2022-09-09T14:10:20.527Z,1.20
2022-09-09T14:12:47.647Z,5.05
2022-09-09T14:15:15.356Z,3.05
2022-09-09T14:17:41.783Z,2.85
2022-09-09T14:20:09.461Z,7.78
2022-09-09T14:22:36.851Z,1.25
2022-09-09T14:25:04.279Z,3.58
2022-09-09T14:27:31.141Z,1.30
2022-09-09T14:29:58.700Z,1.42
2022-09-09T14:32:25.087Z,1.08
2022-09-09T14:34:51.540Z,1.88
2022-09-09T14:37:18.456Z,2.53
2022-09-09T14:39:45.249Z,5.22
2022-09-09T14:42:12.116Z,4.20
2022-09-09T14:44:42.001Z,4.80
2022-09-09T14:47:09.539Z,6.15
2022-09-09T14:49:36.631Z,5.68
2022-09-09T14:52:04.128Z,2.08
2022-09-09T14:54:30.911Z,3.20
2022-09-09T14:56:57.737Z,1.63
2022-09-09T14:59:24.269Z,2.90
2022-09-09T15:01:50.771Z,2.03
2022-09-09T15:04:17.847Z,1.17
2022-09-09T15:06:48.016Z,3.53
2022-09-09T15:09:15.011Z,1.45
2022-09-09T15:11:41.470Z,1.40
2022-09-09T15:14:09.880Z,2.40
2022-09-09T15:16:36.678Z,2.22
2022-09-09T15:19:04.075Z,2.28
2022-09-09T15:21:36.123Z,2.40
2022-09-09T15:24:02.737Z,2.30
2022-09-09T15:26:31.043Z,1.77
2022-09-09T15:29:00.015Z,3.05
2022-09-09T15:31:31.528Z,2.00
2022-09-09T15:34:02.793Z,3.88
2022-09-09T15:36:33.268Z,2.80
2022-09-09T15:39:01.119Z,1.63
2022-09-09T15:41:29.053Z,4.55
2022-09-09T15:44:01.301Z,4.57
2022-09-09T15:46:28.346Z,4.47
2022-09-09T15:49:04.029Z,5.40
2022-09-09T15:51:42.305Z,3.03
2022-09-09T15:54:11.089Z,3.55
2022-09-09T15:56:37.551Z,3.25
2022-09-09T15:59:04.442Z,3.30
2022-09-09T16:01:32.750Z,4.20
2022-09-09T16:04:00.887Z,4.18
2022-09-09T16:06:29.345Z,3.20
2022-09-09T16:08:57.613Z,3.35
2022-09-09T16:11:27.706Z,6.32
2022-09-09T16:13:55.708Z,4.13
2022-09-09T16:16:25.219Z,3.65
2022-09-09T16:18:57.315Z,3.40
2022-09-09T16:21:31.935Z,3.95
2022-09-09T16:24:00.544Z,3.33
2022-09-09T16:26:28.585Z,3.63
2022-09-09T16:28:59.184Z,3.78
2022-09-09T16:31:27.277Z,4.93
2022-09-09T16:33:53.918Z,3.83
2022-09-09T16:36:26.207Z,7.10
2022-09-09T16:38:58.265Z,14.32
2022-09-09T16:41:25.823Z,37.28
2022-09-09T16:44:06.748Z,51.35
2022-09-09T16:46:41.559Z,69.88
2022-09-09T16:49:13.638Z,94.40
2022-09-09T16:51:45.786Z,124.93
2022-09-09T16:54:14.776Z,162.93
2022-09-09T16:56:42.970Z,141.32
2022-09-09T16:59:17.433Z,139.98
2022-09-09T17:01:46.498Z,134.32
2022-09-09T17:04:17.201Z,163.63
2022-09-09T17:06:53.018Z,173.68
2022-09-09T17:09:20.982Z,173.93
2022-09-09T17:11:48.323Z,155.90
2022-09-09T17:14:18.228Z,161.18
2022-09-09T17:16:45.379Z,147.65
2022-09-09T17:19:13.249Z,157.73
2022-09-09T17:21:54.513Z,153.13
2022-09-09T17:24:30.220Z,155.60
2022-09-09T17:26:57.161Z,182.52
2022-09-09T17:29:23.593Z,157.32
2022-09-09T17:31:50.047Z,168.77
2022-09-09T17:34:16.606Z,163.05
2022-09-09T17:36:42.988Z,151.48
2022-09-09T17:39:09.606Z,143.43
2022-09-09T17:41:38.555Z,147.38
2022-09-09T17:46:42.894Z,124.70
2022-09-09T17:49:12.941Z,141.13
2022-09-09T17:51:42.246Z,128.20
2022-09-09T17:54:20.740Z,123.90
2022-09-09T17:56:48.256Z,121.20
2022-09-09T17:59:16.806Z,132.95
2022-09-09T18:01:48.054Z,118.93
2022-09-09T18:04:16.554Z,125.72
2022-09-09T18:06:47.088Z,113.70
2022-09-09T18:09:20.761Z,107.20
2022-09-09T18:11:50.526Z,107.47
2022-09-09T18:14:20.203Z,102.97
2022-09-09T18:16:47.291Z,98.68
2022-09-09T18:19:18.231Z,92.22
2022-09-09T18:21:45.074Z,96.70
2022-09-09T18:24:12.972Z,90.00
2022-09-09T18:26:41.039Z,90.38
2022-09-09T18:29:11.087Z,80.90
2022-09-09T18:31:38.083Z,86.78
2022-09-09T18:34:06.464Z,83.40
2022-09-09T18:36:36.095Z,85.30
2022-09-09T18:39:04.367Z,90.55
2022-09-09T18:41:34.091Z,79.60
2022-09-09T18:44:04.255Z,66.45
2022-09-09T18:46:33.020Z,73.47
2022-09-09T18:48:59.437Z,74.03
2022-09-09T18:51:28.254Z,66.53
2022-09-09T18:54:03.756Z,67.13
2022-09-09T18:56:31.032Z,70.25
2022-09-09T18:59:00.726Z,70.38
2022-09-09T19:01:28.670Z,67.55
2022-09-09T19:03:56.923Z,56.88
2022-09-09T19:06:26.939Z,58.60
2022-09-09T19:08:57.493Z,55.15
2022-09-09T19:11:28.156Z,59.70
2022-09-09T19:13:59.564Z,56.42
2022-09-09T19:16:29.245Z,53.17
2022-09-09T19:18:59.079Z,53.03
2022-09-09T19:21:28.955Z,51.90
2022-09-09T19:24:12.978Z,47.08
2022-09-09T19:26:43.366Z,46.67
2022-09-09T19:29:15.140Z,49.00
2022-09-09T19:31:55.148Z,39.70
2022-09-09T19:34:29.630Z,41.33
2022-09-09T19:36:56.013Z,47.60
2022-09-09T19:39:22.392Z,46.05
2022-09-09T19:41:49.300Z,37.35
2022-09-09T19:44:17.034Z,34.70
2022-09-09T19:46:45.775Z,36.30
2022-09-09T19:49:12.646Z,31.38
2022-09-09T19:51:39.050Z,34.05
2022-09-09T19:54:09.010Z,30.83
2022-09-09T19:56:37.686Z,27.92
2022-09-09T19:59:06.335Z,33.40
2022-09-09T20:01:40.025Z,30.40
2022-09-09T20:06:36.779Z,28.90
2022-09-09T20:09:04.120Z,28.42
2022-09-09T20:11:30.592Z,29.10
2022-09-09T20:13:57.032Z,25.15
2022-09-09T20:16:29.007Z,29.50
2022-09-09T20:18:58.115Z,22.92
2022-09-09T20:21:27.234Z,22.63
2022-09-09T20:23:55.852Z,21.02
2022-09-09T20:26:25.187Z,28.90
2022-09-09T20:28:53.498Z,24.58
2022-09-09T20:31:22.242Z,20.45
2022-09-09T20:33:48.786Z,17.98
2022-09-09T20:36:20.809Z,18.77
2022-09-09T20:38:50.309Z,16.60
2022-09-09T20:41:22.440Z,18.60
2022-09-09T20:43:50.386Z,18.40
2022-09-09T20:46:18.075Z,17.35
2022-09-09T20:48:45.940Z,16.30
2022-09-09T20:51:13.531Z,16.88
2022-09-09T20:53:40.230Z,14.25
2022-09-09T20:56:07.308Z,16.65
2022-09-09T20:58:34.459Z,18.48
2022-09-09T21:01:02.289Z,15.57
2022-09-09T21:03:39.526Z,12.75
2022-09-09T21:06:07.282Z,14.80
2022-09-09T21:08:34.958Z,12.48
2022-09-09T21:11:04.202Z,12.50
2022-09-09T21:13:33.216Z,11.25
2022-09-09T21:16:00.270Z,11.90
2022-09-09T21:18:29.713Z,12.32
2022-09-09T21:20:56.591Z,9.23
2022-09-09T21:23:23.863Z,9.82
2022-09-09T21:25:50.798Z,8.73
2022-09-09T21:28:17.691Z,11.10
2022-09-09T21:30:49.327Z,9.70
2022-09-09T21:33:16.735Z,8.27
2022-09-09T21:35:43.163Z,11.38
2022-09-09T21:38:16.182Z,11.30
2022-09-09T21:40:43.323Z,8.73
2022-09-09T21:43:11.152Z,5.95
2022-09-09T21:45:39.195Z,7.50
2022-09-09T21:48:06.761Z,9.02
2022-09-09T21:50:40.442Z,7.53
2022-09-09T21:53:07.253Z,5.75
2022-09-09T21:55:34.777Z,6.28
2022-09-09T21:58:01.152Z,5.60
2022-09-09T22:00:27.542Z,5.22
2022-09-09T22:02:54.057Z,8.32
2022-09-09T22:05:20.470Z,7.38
2022-09-09T22:07:46.887Z,4.88
2022-09-09T22:10:13.582Z,5.07
2022-09-09T22:12:40.023Z,3.92
2022-09-09T22:15:09.606Z,6.28
2022-09-09T22:17:35.987Z,4.40
2022-09-09T22:20:02.755Z,6.70
2022-09-09T22:22:29.194Z,4.88
2022-09-09T22:24:55.635Z,5.18
2022-09-09T22:27:22.031Z,5.40
2022-09-09T22:29:48.406Z,4.25
2022-09-09T22:32:14.930Z,4.03
2022-09-09T22:34:41.386Z,3.90
2022-09-09T22:37:08.142Z,4.32
2022-09-09T22:39:34.665Z,4.22
2022-09-09T22:42:01.155Z,4.68
2022-09-09T22:44:27.841Z,4.32
2022-09-09T22:46:55.740Z,3.70
2022-09-09T22:49:23.108Z,4.22
2022-09-09T22:51:50.102Z,5.60
2022-09-09T22:54:21.623Z,6.30
2022-09-09T22:56:49.629Z,4.03
2022-09-09T22:59:16.723Z,7.25
2022-09-09T23:01:43.275Z,3.90
2022-09-09T23:04:09.969Z,4.05
2022-09-09T23:06:38.479Z,3.35
2022-09-09T23:09:05.418Z,5.47
2022-09-09T23:11:37.093Z,3.47
2022-09-09T23:14:05.355Z,4.90
2022-09-09T23:16:39.443Z,3.42
2022-09-09T23:21:38.319Z,3.42
2022-09-09T23:24:06.509Z,6.00
2022-09-09T23:26:33.262Z,3.13
2022-09-09T23:29:02.331Z,3.67
2022-09-09T23:31:33.004Z,2.95
2022-09-09T23:34:01.222Z,4.97
2022-09-09T23:36:31.308Z,3.75
2022-09-09T23:39:03.589Z,2.80
2022-09-09T23:41:30.995Z,4.50
2022-09-09T23:43:57.743Z,2.83
2022-09-09T23:46:27.655Z,5.30
2022-09-09T23:48:54.603Z,3.03
2022-09-09T23:51:23.911Z,2.72
2022-09-09T23:53:53.262Z,2.88
2022-09-09T23:56:21.243Z,4.53
2022-09-09T23:58:49.058Z,3.30
